createdAt,value
2023-05-08T00:00:11.414Z,12.02
2023-05-08T00:02:40.689Z,9.50
2023-05-08T00:05:07.787Z,9.40
2023-05-08T00:07:36.587Z,9.75
2023-05-08T00:10:07.188Z,10.35
2023-05-08T00:12:34.440Z,11.13
2023-05-08T00:15:01.771Z,10.80
2023-05-08T00:17:29.031Z,10.35
2023-05-08T00:19:56.054Z,9.65
2023-05-08T00:22:23.125Z,9.63
2023-05-08T00:24:49.988Z,10.15
2023-05-08T00:27:16.896Z,9.43
2023-05-08T00:29:43.739Z,9.27
2023-05-08T00:32:10.497Z,8.75
2023-05-08T00:34:37.238Z,8.30
2023-05-08T00:37:04.031Z,8.65
2023-05-08T00:39:30.885Z,8.10
2023-05-08T00:41:57.645Z,8.85
2023-05-08T00:44:24.379Z,9.30
2023-05-08T00:46:51.372Z,8.85
2023-05-08T00:49:18.840Z,10.50
2023-05-08T00:51:47.932Z,7.95
2023-05-08T00:54:15.350Z,7.60
2023-05-08T00:56:42.882Z,8.15
2023-05-08T00:59:13.574Z,10.93
2023-05-08T01:01:40.982Z,9.43
2023-05-08T01:04:08.312Z,7.65
2023-05-08T01:06:36.831Z,8.77
2023-05-08T01:09:04.020Z,9.27
2023-05-08T01:12:01.936Z,8.98
2023-05-08T01:15:08.262Z,7.75
2023-05-08T01:17:57.429Z,6.60
2023-05-08T01:21:23.244Z,7.47
2023-05-08T01:24:25.081Z,10.68
2023-05-08T01:27:41.622Z,7.90
2023-05-08T01:30:46.262Z,10.70
2023-05-08T01:33:37.126Z,9.73
2023-05-08T01:36:41.483Z,6.90
2023-05-08T01:39:25.949Z,6.47
2023-05-08T01:42:24.616Z,9.70
2023-05-08T01:45:00.707Z,7.78
2023-05-08T01:47:31.126Z,9.85
2023-05-08T01:50:09.729Z,11.15
2023-05-08T01:53:07.916Z,9.40
2023-05-08T01:55:37.624Z,8.93
2023-05-08T01:58:10.192Z,9.70
2023-05-08T02:00:40.816Z,10.93
2023-05-08T02:03:09.716Z,8.80
2023-05-08T02:05:40.562Z,9.15
2023-05-08T02:08:11.774Z,11.65
2023-05-08T02:10:40.125Z,10.00
2023-05-08T02:13:10.141Z,10.02
2023-05-08T02:15:37.886Z,9.50
2023-05-08T02:18:07.745Z,12.38
2023-05-08T02:20:34.821Z,8.77
2023-05-08T02:23:02.773Z,10.05
2023-05-08T02:25:31.989Z,8.88
2023-05-08T02:27:59.137Z,12.70
2023-05-08T02:30:27.587Z,9.32
2023-05-08T02:32:59.748Z,9.45
2023-05-08T02:35:29.667Z,8.82
2023-05-08T02:37:57.352Z,10.77
2023-05-08T02:40:28.394Z,10.60
2023-05-08T02:42:55.802Z,10.70
2023-05-08T02:45:28.996Z,13.43
2023-05-08T02:48:09.158Z,9.18
2023-05-08T02:50:46.074Z,9.43
2023-05-08T02:53:21.879Z,8.65
2023-05-08T02:56:08.271Z,9.73
2023-05-08T02:58:44.637Z,10.30
2023-05-08T03:01:29.961Z,10.25
2023-05-08T03:04:07.008Z,9.35
2023-05-08T03:06:46.896Z,9.02
2023-05-08T03:09:20.924Z,9.50
2023-05-08T03:11:50.811Z,7.93
2023-05-08T03:14:24.276Z,8.27
2023-05-08T03:16:53.842Z,16.75
2023-05-08T03:19:37.321Z,35.35
2023-05-08T03:22:07.140Z,40.13
2023-05-08T03:24:36.847Z,71.43
2023-05-08T03:27:04.098Z,55.25
2023-05-08T03:29:31.978Z,71.15
2023-05-08T03:32:00.922Z,73.50
2023-05-08T03:34:29.960Z,86.50
2023-05-08T03:36:56.871Z,106.45
2023-05-08T03:39:25.731Z,116.28
2023-05-08T03:41:52.564Z,134.48
2023-05-08T03:44:20.178Z,84.65
2023-05-08T03:46:51.122Z,90.28
2023-05-08T03:49:18.813Z,102.25
2023-05-08T03:51:45.936Z,98.78
2023-05-08T03:54:12.666Z,72.45
2023-05-08T03:56:39.424Z,93.57
2023-05-08T04:22:31.891Z,54.90
2023-05-08T04:25:03.260Z,40.35
2023-05-08T04:27:31.468Z,46.42
2023-05-08T04:29:58.610Z,115.47
2023-05-08T04:32:27.596Z,134.75
2023-05-08T04:34:55.426Z,79.03
2023-05-08T04:37:31.737Z,93.10
2023-05-08T04:39:59.949Z,74.95
2023-05-08T04:42:27.337Z,109.88
2023-05-08T04:44:54.804Z,177.38
2023-05-08T04:47:22.074Z,193.73
2023-05-08T04:49:48.907Z,147.32
2023-05-08T04:52:15.880Z,137.80
2023-05-08T04:54:42.609Z,122.70
2023-05-08T04:57:09.564Z,99.75
2023-05-08T04:59:36.384Z,120.05
2023-05-08T05:02:03.201Z,69.07
2023-05-08T05:04:30.178Z,99.88
2023-05-08T05:06:56.972Z,109.97
2023-05-08T05:09:25.236Z,89.03
2023-05-08T05:11:52.109Z,111.60
2023-05-08T05:14:19.066Z,112.00
2023-05-08T05:16:46.186Z,60.45
2023-05-08T05:19:13.666Z,79.47
2023-05-08T05:21:40.480Z,68.15
2023-05-08T05:24:07.357Z,49.00
2023-05-08T05:26:36.393Z,77.60
2023-05-08T05:29:03.719Z,64.15
2023-05-08T05:31:30.612Z,47.78
2023-05-08T05:33:57.490Z,45.22
2023-05-08T05:36:24.231Z,43.25
2023-05-08T05:38:50.971Z,40.03
2023-05-08T05:41:17.702Z,42.75
2023-05-08T05:43:44.461Z,38.40
2023-05-08T05:46:11.436Z,42.72
2023-05-08T05:48:38.153Z,41.55
2023-05-08T05:51:06.113Z,44.38
2023-05-08T05:53:32.866Z,35.63
2023-05-08T05:55:59.603Z,39.42
2023-05-08T05:58:28.288Z,39.22
2023-05-08T06:00:55.135Z,39.95
2023-05-08T06:03:22.074Z,36.20
2023-05-08T06:05:48.940Z,31.05
2023-05-08T06:08:17.779Z,33.85
2023-05-08T06:10:44.568Z,29.65
2023-05-08T06:13:11.336Z,33.53
2023-05-08T06:15:38.107Z,33.50
2023-05-08T06:18:05.138Z,34.60
2023-05-08T06:20:31.923Z,29.38
2023-05-08T06:22:58.694Z,30.67
2023-05-08T06:25:25.499Z,32.33
2023-05-08T06:27:52.212Z,35.28
2023-05-08T06:30:19.069Z,43.25
2023-05-08T06:32:45.822Z,43.63
2023-05-08T06:35:12.806Z,40.30
2023-05-08T06:37:39.676Z,37.13
2023-05-08T06:42:37.206Z,37.13
2023-05-08T06:45:04.583Z,32.03
2023-05-08T06:47:31.395Z,30.25
2023-05-08T06:49:58.324Z,30.05
2023-05-08T06:52:25.648Z,30.83
2023-05-08T06:54:52.525Z,33.65
2023-05-08T06:57:19.370Z,32.00
2023-05-08T06:59:46.086Z,29.27
2023-05-08T07:02:13.003Z,29.45
2023-05-08T07:04:39.907Z,29.73
2023-05-08T07:07:07.677Z,27.42
2023-05-08T07:09:34.447Z,29.33
2023-05-08T07:12:01.209Z,29.58
2023-05-08T07:14:28.475Z,23.75
2023-05-08T07:16:55.290Z,28.67
2023-05-08T07:19:22.682Z,23.20
2023-05-08T07:21:49.496Z,23.70
2023-05-08T07:24:16.348Z,22.80
2023-05-08T07:26:43.085Z,22.25
2023-05-08T07:29:09.804Z,20.83
2023-05-08T07:31:40.730Z,22.05
2023-05-08T07:34:07.523Z,25.83
2023-05-08T07:36:34.320Z,22.73
2023-05-08T07:39:01.130Z,23.95
2023-05-08T07:41:27.898Z,20.38
2023-05-08T07:43:54.653Z,21.50
2023-05-08T07:46:21.780Z,20.52
2023-05-08T07:48:48.904Z,22.23
2023-05-08T07:51:15.789Z,23.35
2023-05-08T07:53:44.068Z,22.63
2023-05-08T07:56:11.127Z,20.25
2023-05-08T07:58:37.895Z,25.15
2023-05-08T08:01:04.765Z,27.05
2023-05-08T08:03:31.518Z,25.50
2023-05-08T08:05:59.664Z,25.85
2023-05-08T08:08:26.366Z,22.92
2023-05-08T08:10:53.123Z,24.10
2023-05-08T08:13:20.010Z,25.33
2023-05-08T08:15:46.842Z,28.80
2023-05-08T08:18:13.929Z,24.40
2023-05-08T08:20:40.671Z,25.63
2023-05-08T08:23:07.415Z,23.02
2023-05-08T08:25:34.230Z,23.98
2023-05-08T08:28:01.449Z,25.05
2023-05-08T08:30:28.160Z,21.65
2023-05-08T08:32:56.147Z,23.50
2023-05-08T08:35:29.067Z,22.40
2023-05-08T08:37:58.967Z,22.38
2023-05-08T08:40:26.086Z,21.73
2023-05-08T08:42:52.889Z,16.60
2023-05-08T08:45:19.801Z,16.20
2023-05-08T08:47:48.415Z,17.52
2023-05-08T08:50:15.778Z,17.05
2023-05-08T08:53:06.587Z,16.90
2023-05-08T08:55:37.427Z,15.65
2023-05-08T08:58:39.227Z,16.55
2023-05-08T09:01:09.818Z,18.58
2023-05-08T09:03:36.926Z,19.58
2023-05-08T09:06:05.341Z,17.95
2023-05-08T09:08:32.517Z,20.65
2023-05-08T09:11:02.561Z,17.55
2023-05-08T09:13:29.943Z,17.15
2023-05-08T09:15:59.154Z,19.33
2023-05-08T09:18:26.920Z,20.13
2023-05-08T09:20:53.871Z,16.75
2023-05-08T09:23:20.952Z,16.67
2023-05-08T09:25:50.456Z,20.42
2023-05-08T09:28:25.651Z,19.30
2023-05-08T09:30:58.718Z,19.35
2023-05-08T09:33:29.550Z,16.73
2023-05-08T09:35:57.410Z,17.60
2023-05-08T09:38:39.922Z,16.33
2023-05-08T09:41:14.387Z,12.23
2023-05-08T09:43:45.404Z,12.07
2023-05-08T09:48:52.914Z,11.27
2023-05-08T09:51:20.803Z,9.80
2023-05-08T09:53:51.476Z,9.98
2023-05-08T09:56:36.950Z,8.70
2023-05-08T09:59:06.722Z,9.75
2023-05-08T10:01:36.483Z,8.33
2023-05-08T10:04:05.409Z,8.93
2023-05-08T10:06:32.356Z,8.93
2023-05-08T10:09:14.566Z,10.73
2023-05-08T10:11:52.547Z,12.25
2023-05-08T10:14:20.413Z,11.48
2023-05-08T10:16:49.448Z,11.88
2023-05-08T10:19:19.319Z,11.25
2023-05-08T10:21:49.336Z,13.20
2023-05-08T10:24:19.512Z,12.85
2023-05-08T10:27:06.847Z,10.87
2023-05-08T10:29:47.598Z,13.35
2023-05-08T10:32:19.372Z,10.98
2023-05-08T10:34:52.797Z,7.50
2023-05-08T10:37:20.288Z,7.93
2023-05-08T10:39:49.132Z,8.73
2023-05-08T10:42:16.135Z,5.75
2023-05-08T10:44:43.035Z,6.10
2023-05-08T10:47:41.047Z,4.55
2023-05-08T10:50:28.304Z,6.03
2023-05-08T10:53:30.122Z,6.03
2023-05-08T10:55:57.232Z,3.85
2023-05-08T10:58:23.866Z,4.82
2023-05-08T11:00:53.817Z,4.18
2023-05-08T11:03:31.243Z,3.93
2023-05-08T11:06:01.359Z,3.40
2023-05-08T11:08:30.153Z,2.83
2023-05-08T11:10:59.802Z,3.33
2023-05-08T11:13:34.241Z,3.53
2023-05-08T11:16:01.494Z,4.57
2023-05-08T11:18:41.903Z,6.18
2023-05-08T11:21:21.705Z,7.13
2023-05-08T11:23:57.701Z,7.53
2023-05-08T11:26:42.145Z,8.75
2023-05-08T11:29:18.122Z,8.88
2023-05-08T11:31:52.822Z,11.23
2023-05-08T11:34:44.654Z,10.52
2023-05-08T11:37:19.389Z,15.65
2023-05-08T11:39:50.309Z,19.13
2023-05-08T11:42:28.865Z,22.70
2023-05-08T11:45:25.121Z,28.30
2023-05-08T11:48:01.782Z,25.95
2023-05-08T11:50:28.867Z,24.60
2023-05-08T11:52:56.261Z,27.88
2023-05-08T11:55:23.024Z,31.58
2023-05-08T11:57:55.657Z,28.88
2023-05-08T12:00:22.707Z,31.58
2023-05-08T12:02:49.617Z,29.58
2023-05-08T12:05:27.390Z,32.63
2023-05-08T12:07:54.164Z,32.03
2023-05-08T12:10:21.004Z,33.05
2023-05-08T12:12:48.384Z,30.13
2023-05-08T12:15:15.568Z,30.35
2023-05-08T12:17:43.144Z,33.83
2023-05-08T12:20:18.646Z,31.35
2023-05-08T12:22:53.516Z,28.48
2023-05-08T12:25:20.706Z,28.63
2023-05-08T12:27:47.816Z,27.88
2023-05-08T12:30:16.451Z,28.38
2023-05-08T12:32:44.518Z,25.33
2023-05-08T12:35:13.154Z,28.83
2023-05-08T12:37:40.531Z,30.27
2023-05-08T12:40:19.440Z,28.92
2023-05-08T12:42:49.367Z,26.15
2023-05-08T12:45:28.215Z,24.52
2023-05-08T12:48:03.561Z,26.83
2023-05-08T12:50:40.014Z,24.55
2023-05-08T12:53:13.050Z,27.38
2023-05-08T12:55:52.653Z,24.75
2023-05-08T12:58:20.757Z,26.08
2023-05-08T13:00:51.502Z,23.52
2023-05-08T13:03:28.036Z,22.85
2023-05-08T13:05:57.334Z,21.80
2023-05-08T13:08:36.374Z,20.80
2023-05-08T13:11:05.381Z,25.50
2023-05-08T13:13:36.559Z,22.17
2023-05-08T13:16:07.889Z,23.92
2023-05-08T13:21:03.615Z,17.65
2023-05-08T13:23:30.450Z,17.98
2023-05-08T13:25:57.225Z,15.65
2023-05-08T13:28:23.996Z,12.57
2023-05-08T13:30:50.844Z,13.00
2023-05-08T13:33:17.602Z,14.05
2023-05-08T13:35:44.320Z,15.23
2023-05-08T13:38:11.123Z,15.13
2023-05-08T13:40:37.821Z,14.30
2023-05-08T13:43:04.553Z,11.68
2023-05-08T13:45:32.809Z,11.88
2023-05-08T13:47:59.825Z,8.48
2023-05-08T13:50:26.578Z,10.85
2023-05-08T13:52:54.925Z,16.92
2023-05-08T13:55:23.269Z,14.50
2023-05-08T13:57:50.423Z,13.75
2023-05-08T14:00:18.084Z,10.40
2023-05-08T14:02:45.011Z,11.13
2023-05-08T14:05:12.265Z,6.97
2023-05-08T14:07:39.327Z,5.07
2023-05-08T14:10:07.202Z,18.05
2023-05-08T14:12:37.350Z,3.58
2023-05-08T14:15:08.275Z,5.25
2023-05-08T14:17:35.420Z,3.95
2023-05-08T14:20:02.231Z,3.70
2023-05-08T14:22:29.081Z,3.63
2023-05-08T14:24:55.977Z,3.65
2023-05-08T14:27:22.748Z,3.95
2023-05-08T14:29:49.688Z,4.20
2023-05-08T14:32:16.553Z,3.90
2023-05-08T14:34:43.419Z,3.97
2023-05-08T14:37:11.205Z,4.20
2023-05-08T14:39:37.980Z,4.95
2023-05-08T14:42:22.021Z,4.10
2023-05-08T14:44:50.719Z,4.28
2023-05-08T14:47:17.652Z,4.00
2023-05-08T14:49:44.389Z,4.78
2023-05-08T14:52:11.136Z,3.80
2023-05-08T14:54:38.132Z,4.30
2023-05-08T14:57:05.021Z,5.45
2023-05-08T14:59:31.741Z,4.20
2023-05-08T15:01:58.527Z,4.32
2023-05-08T15:04:25.521Z,5.57
2023-05-08T15:06:52.527Z,4.05
2023-05-08T15:09:19.450Z,4.07
2023-05-08T15:11:46.212Z,4.53
2023-05-08T15:14:12.974Z,6.28
2023-05-08T15:16:39.814Z,5.00
2023-05-08T15:19:06.619Z,4.80
2023-05-08T15:21:33.358Z,6.72
2023-05-08T15:24:00.236Z,6.18
2023-05-08T15:26:27.077Z,4.78
2023-05-08T15:28:53.830Z,4.88
2023-05-08T15:31:21.591Z,6.57
2023-05-08T15:33:48.493Z,5.03
2023-05-08T15:36:15.438Z,5.63
2023-05-08T15:38:42.896Z,5.05
2023-05-08T15:41:14.592Z,5.95
2023-05-08T15:43:43.021Z,6.13
2023-05-08T15:46:10.122Z,5.90
2023-05-08T15:48:37.072Z,5.28
2023-05-08T15:51:03.875Z,6.72
2023-05-08T15:53:30.648Z,6.70
2023-05-08T15:55:57.558Z,6.43
2023-05-08T15:58:24.755Z,7.50
2023-05-08T16:00:51.756Z,7.57
2023-05-08T16:03:19.076Z,8.40
2023-05-08T16:05:46.113Z,8.57
2023-05-08T16:08:13.620Z,7.88
2023-05-08T16:10:43.669Z,11.40
2023-05-08T16:13:10.490Z,9.77
2023-05-08T16:15:37.244Z,10.95
2023-05-08T16:18:04.412Z,11.55
2023-05-08T16:20:33.340Z,9.05
2023-05-08T16:23:01.121Z,9.45
2023-05-08T16:25:28.000Z,10.65
2023-05-08T16:27:54.796Z,9.00
2023-05-08T16:30:21.544Z,8.13
2023-05-08T16:32:48.383Z,7.50
2023-05-08T16:35:15.710Z,8.93
2023-05-08T16:37:43.269Z,6.32
2023-05-08T16:40:10.984Z,6.93
2023-05-08T16:42:37.786Z,10.00
2023-05-08T16:45:05.684Z,5.95
2023-05-08T16:47:33.313Z,7.47
2023-05-08T16:50:00.558Z,7.07
2023-05-08T16:52:27.368Z,6.25
2023-05-08T16:54:54.115Z,6.28
2023-05-08T16:57:20.934Z,6.72
2023-05-08T16:59:47.796Z,7.40
2023-05-08T17:02:18.761Z,8.57
2023-05-08T17:04:49.620Z,7.57
2023-05-08T17:07:17.055Z,6.80
2023-05-08T17:09:44.604Z,6.13
2023-05-08T17:12:11.374Z,4.80
2023-05-08T17:14:40.139Z,5.63
2023-05-08T17:17:07.243Z,5.07
2023-05-08T17:19:34.063Z,4.88
2023-05-08T17:22:01.024Z,5.28
2023-05-08T17:24:30.192Z,5.38
2023-05-08T17:26:56.933Z,5.70
2023-05-08T17:29:23.874Z,6.93
2023-05-08T17:31:50.659Z,5.05
2023-05-08T17:34:17.557Z,7.00
2023-05-08T17:36:44.375Z,5.93
2023-05-08T17:39:11.528Z,6.35
2023-05-08T17:41:38.262Z,5.57
2023-05-08T17:44:05.088Z,5.28
2023-05-08T17:46:31.981Z,7.43
2023-05-08T17:48:58.757Z,6.80
2023-05-08T17:51:25.467Z,4.70
2023-05-08T17:53:53.068Z,5.85
2023-05-08T17:56:23.003Z,8.15
2023-05-08T17:58:51.809Z,6.47
2023-05-08T18:01:19.904Z,8.82
2023-05-08T18:03:48.192Z,6.55
2023-05-08T18:06:16.953Z,6.43
2023-05-08T18:08:44.407Z,4.78
2023-05-08T18:11:23.248Z,5.60
2023-05-08T18:13:51.647Z,5.80
2023-05-08T18:16:21.025Z,6.60
2023-05-08T18:18:49.419Z,5.07
2023-05-08T18:21:16.196Z,6.07
2023-05-08T18:23:43.003Z,4.85
2023-05-08T18:26:16.237Z,6.63
2023-05-08T18:28:43.784Z,5.72
2023-05-08T18:31:11.811Z,9.10
2023-05-08T18:33:39.142Z,5.00
2023-05-08T18:36:06.799Z,6.78
2023-05-08T18:38:34.212Z,6.50
2023-05-08T18:41:05.116Z,6.40
2023-05-08T18:43:31.958Z,8.65
2023-05-08T18:46:00.377Z,7.07
2023-05-08T18:48:27.352Z,5.55
2023-05-08T18:50:58.254Z,7.65
2023-05-08T18:53:25.010Z,7.43
2023-05-08T18:55:52.220Z,7.22
2023-05-08T18:58:18.955Z,7.25
2023-05-08T19:00:45.746Z,8.98
2023-05-08T19:03:12.583Z,7.28
2023-05-08T19:05:41.567Z,6.95
2023-05-08T19:08:08.592Z,10.07
2023-05-08T19:10:35.315Z,7.30
2023-05-08T19:13:02.235Z,6.70
2023-05-08T19:15:29.152Z,7.97
2023-05-08T19:17:56.121Z,6.28
2023-05-08T19:20:23.098Z,8.43
2023-05-08T19:22:49.901Z,12.57
2023-05-08T19:25:16.642Z,7.00
2023-05-08T19:27:43.409Z,9.55
2023-05-08T19:30:10.712Z,8.45
2023-05-08T19:32:37.638Z,8.85
2023-05-08T19:35:04.955Z,8.75
2023-05-08T19:37:31.936Z,11.52
2023-05-08T19:39:58.725Z,9.63
2023-05-08T19:42:25.834Z,8.50
2023-05-08T19:44:52.664Z,9.60
2023-05-08T19:47:19.447Z,8.73
2023-05-08T19:49:46.226Z,9.73
2023-05-08T19:52:13.009Z,8.82
2023-05-08T19:54:40.817Z,10.02
2023-05-08T19:57:07.548Z,9.70
2023-05-08T19:59:34.295Z,9.05
2023-05-08T20:02:01.302Z,9.10
2023-05-08T20:04:28.445Z,9.25
2023-05-08T20:06:55.164Z,7.97
2023-05-08T20:09:21.883Z,8.73
2023-05-08T20:11:49.632Z,7.15
2023-05-08T20:14:16.363Z,7.28
2023-05-08T20:16:43.158Z,8.90
2023-05-08T20:19:09.920Z,9.18
2023-05-08T20:21:36.715Z,8.45
2023-05-08T20:24:03.845Z,8.73
2023-05-08T20:26:32.206Z,7.93
2023-05-08T20:29:00.969Z,9.15
2023-05-08T20:31:29.242Z,7.15
2023-05-08T20:33:56.515Z,8.40
2023-05-08T20:36:23.285Z,9.90
2023-05-08T20:38:50.047Z,9.07
2023-05-08T20:41:17.035Z,10.18
2023-05-08T20:43:43.783Z,8.25
2023-05-08T20:46:10.823Z,9.30
2023-05-08T20:48:38.314Z,9.38
2023-05-08T20:51:05.062Z,8.20
2023-05-08T20:53:32.619Z,9.65
2023-05-08T20:56:03.943Z,10.10
2023-05-08T20:58:31.144Z,8.15
2023-05-08T21:00:58.025Z,9.20
2023-05-08T21:03:24.902Z,11.48
2023-05-08T21:05:51.790Z,9.43
2023-05-08T21:08:23.376Z,11.20
2023-05-08T21:10:51.764Z,10.55
2023-05-08T21:13:19.180Z,9.68
2023-05-08T21:15:50.316Z,10.82
2023-05-08T21:18:17.365Z,9.77
2023-05-08T21:20:50.220Z,11.10
2023-05-08T21:23:18.721Z,10.57
2023-05-08T21:25:46.940Z,10.32
2023-05-08T21:28:15.069Z,8.38
2023-05-08T21:30:45.341Z,12.55
2023-05-08T21:33:16.241Z,19.92
2023-05-08T21:35:43.728Z,9.30
2023-05-08T21:38:11.989Z,9.10
2023-05-08T21:40:39.075Z,8.90
2023-05-08T21:43:05.796Z,9.80
2023-05-08T21:45:33.326Z,8.85
2023-05-08T21:48:00.644Z,8.35
2023-05-08T21:50:30.621Z,9.57
2023-05-08T21:52:57.444Z,10.52
2023-05-08T21:55:24.845Z,10.65
2023-05-08T21:57:51.939Z,9.20
2023-05-08T22:00:20.018Z,9.20
2023-05-08T22:02:47.074Z,9.82
2023-05-08T22:05:14.366Z,9.02
2023-05-08T22:07:41.624Z,10.23
2023-05-08T22:10:10.284Z,8.57
2023-05-08T22:12:37.186Z,9.00
2023-05-08T22:15:07.524Z,8.88
2023-05-08T22:17:40.144Z,11.52
2023-05-08T22:20:09.035Z,10.68
2023-05-08T22:22:35.864Z,12.40
2023-05-08T22:25:02.632Z,11.35
2023-05-08T22:27:29.345Z,10.73
2023-05-08T22:29:56.052Z,10.35
2023-05-08T22:32:24.202Z,10.13
2023-05-08T22:34:51.016Z,10.60
2023-05-08T22:37:17.854Z,8.52
2023-05-08T22:39:44.597Z,9.10
2023-05-08T22:42:11.683Z,7.63
2023-05-08T22:44:38.641Z,10.50
2023-05-08T22:47:05.813Z,9.90
2023-05-08T22:49:32.629Z,11.70
2023-05-08T22:51:59.427Z,15.18
2023-05-08T22:54:26.165Z,16.27
2023-05-08T22:56:52.874Z,20.00
2023-05-08T22:59:19.590Z,25.20
2023-05-08T23:01:46.391Z,23.88
2023-05-08T23:04:13.232Z,26.30
2023-05-08T23:06:39.946Z,28.48
2023-05-08T23:09:06.760Z,31.83
2023-05-08T23:11:33.511Z,37.63
2023-05-08T23:14:00.510Z,38.28
2023-05-08T23:16:27.252Z,41.03
2023-05-08T23:18:54.087Z,44.00
2023-05-08T23:21:20.923Z,39.42
2023-05-08T23:23:48.182Z,39.33
2023-05-08T23:26:14.998Z,46.25
2023-05-08T23:28:41.806Z,42.67
2023-05-08T23:31:08.551Z,45.83
2023-05-08T23:33:35.353Z,47.38
2023-05-08T23:36:02.093Z,42.15
2023-05-08T23:38:28.830Z,45.45
2023-05-08T23:40:55.555Z,47.92
2023-05-08T23:43:22.292Z,42.70
2023-05-08T23:45:49.789Z,44.67
2023-05-08T23:48:17.037Z,44.10
2023-05-08T23:50:43.793Z,44.35
2023-05-08T23:53:10.544Z,45.85
2023-05-08T23:55:37.757Z,42.03
2023-05-08T23:58:04.816Z,47.10
